Bellwood, AL (36313)

4:21 PM CST on December 21, 2014 (GMT -0600)
Cairns Army Air Field | Change Station
CLOSE
Current Station
Airport
Location: Ozark,
Elevation: 299 ft
Nearby Weather Stations

Elev 299 ft 31.28 °N, 85.71 °W | Updated 23 minutes ago

Overcast
Overcast
54 °F
Feels Like 54 °F
N
6
Wind Variable Wind from NE

Today
High -- | Low -- °F
--% Chance of Precip.
Yesterday
High -- | Low -- °F
Precip. -- in
6:37 AM 4:44 PM
Waning Crescent, 0% visible
Pressure 30.05 in
Visibility 4.0 miles
Clouds Overcast 400 ft
Dew Point 52 °F
Humidity 94%
Rainfall 0.00 in
Snow Depth Not available.
UV 0 out of 12
Pollen .40 out of 12
Air Quality Not available.
Flu Activity Not available.
METAR KOZR 212158Z AUTO 04005KT 4SM BR OVC004 12/11 A3004 RMK AO2 SLP175 T01230113

More Conditions Fewer Conditions

Pressure 30.05 in
Visibility 4.0 miles
Clouds Overcast 400 ft
Dew Point 52 °F
Humidity 94%
Rainfall 0.00 in
Snow Depth Not available.
UV 0 out of 12
Pollen .40 out of 12
Air Quality Not available.
Flu Activity Not available.
METAR KOZR 212158Z AUTO 04005KT 4SM BR OVC004 12/11 A3004 RMK AO2 SLP175 T01230113

More Conditions Fewer Conditions

10-Day Weather Forecast

Almanac

Astronomy

Dec. 21, 2014 Rise Set
Actual Time
Civil Twilight
Nautical Twilight
Astronomical Twilight
Moon
Length of Visible Light
Length of Day
Tomorrow will be .
, % of the Moon is Illuminated

Today's Extremes

State Highs State Lows

Community

WunderPhotos

Upload Photos

1,779,499 photos uploaded!

WunderBlogs® & News

Nearby

Air Quality

  Air Quality AQ Index Pollutant
Not available.

Snow Depth

Station Depth Elevation

Earthquake Activity

City Distance Mag. Time & Date
Minimum magnitude displayed is 2.5.

Coastal Water Temperatures

Place Temperature

Nearby Weather Stations